Aérodrome :
LOGIN :

S'inscrire | Disclaimer

   EN    FR    IT 

 










Légende :    VFR   VFR Marginal   IFR   IFR Intensif   IFR Très Intensif
Visi : 
Plafond : 
>= 8 km
>= 3000ft
5 à 8 km
1000 à 3000 ft
1500m à 5 km
500 à 1000 ft
800 à 1500m
200 à 500 ft
< 800m
< 200 ft
Symboles :   Orages  Brouillard  Fortes neiges  Fortes précipitations  Vent > 20 kt
SIGMETs :   Divers  Orages  Givrage  Turbulence  Onde Orograph.  Cendres Volcan.







- Altitude de l'aérodrome : 83 ft
- Code IATA : LHR
- Voir les cartes d'approche


EGLL - London Heathrow

DERNIER METAR :
  • 230020Z AUTO 26010KT 9999 NCD 11/08 Q1018 NOSIG

METARs EXPIRÉS :
  • 222350Z AUTO 24007KT 9999 NCD 11/08 Q1018 NOSIG
  • 222320Z AUTO 24006KT 9999 NCD 11/08 Q1019 NOSIG
  • 222250Z AUTO 25006KT 9999 NCD 11/08 Q1019
  • 222220Z AUTO 26010KT 9999 NCD 11/08 Q1019
  • 222150Z AUTO 27009KT 9999 NCD 11/08 Q1018 NOSIG

TAF TAF EGLL
Valide du 23 à 00h jusqu'au 24 à 06h UTC


222254Z 2300/2406 28010KT 9999 SCT040
BECMG 2306/2309 21008KT BKN010
TEMPO 2306/2315 6000 -RA
PROB40
TEMPO 2308/2315 4000 RADZ BKN005
BECMG 2315/2318 BKN035
PROB30 2322/2403 2000 BR MIFG BKN004
BECMG 2403/2406 3000 RADZ BKN012
TEMPO 2403/2406 BKN004
Pas de NOTAMs connus pour ce terrain.



MET'MAP, la Météo Aéronautique d'un coup d'oeil ! - Copyright ORBIFLY Décembre 2007 - Disclaimer

ORBIFLY MET'MAP TEAM :

Programmation & Développement : Alexandra Zaïnal
Conception & Développement : Baudouin d'Aumeries
Co-Programmation & Développement : Marc-Olivier Méhu
Soutien technique & logistique : Manuel Goepfert

Contact : metmap@orbifly.com




SOURCES & CREDITS :

   NOAA